Time;durP1;ratioP1;P1;durP2;ratioP2;P2;SDS_P1;SDS_P2;PMS_P1;PMS_P2;Temp;Humidity;BMP_temperature;BMP_pressure;BME280_temperature;BME280_humidity;BME280_pressure;Samples;Min_cycle;Max_cycle;Signal;HPM_P1;HPM_P2
2023/06/25 00:01:06;;;;;;;28.88;26.23;;;15.70;99.90;;;;;;5009482;28;20045;-73
2023/06/25 00:03:33;;;;;;;27.45;25.10;;;15.70;99.90;;;;;;5011258;28;20051;-70
2023/06/25 00:06:00;;;;;;;28.52;26.25;;;15.60;99.90;;;;;;5012158;28;20136;-72
2023/06/25 00:08:27;;;;;;;27.90;25.40;;;15.70;99.90;;;;;;5011816;28;20073;-72
2023/06/25 00:10:54;;;;;;;29.90;27.08;;;15.80;99.90;;;;;;5013550;28;20123;-72
2023/06/25 00:13:20;;;;;;;29.88;27.35;;;15.70;99.90;;;;;;4990701;28;20067;-71
2023/06/25 00:15:47;;;;;;;30.17;27.35;;;15.70;99.90;;;;;;5012676;28;20713;-72
2023/06/25 00:18:14;;;;;;;28.38;25.98;;;15.70;99.90;;;;;;5011855;28;20053;-72
2023/06/25 00:20:42;;;;;;;31.58;28.80;;;15.70;99.90;;;;;;5011237;28;20045;-72
2023/06/25 00:23:09;;;;;;;31.25;28.65;;;15.70;99.90;;;;;;5007671;28;20041;-71
2023/06/25 00:25:35;;;;;;;31.15;27.95;;;15.50;99.90;;;;;;5014177;28;20687;-71
2023/06/25 00:28:07;;;;;;;30.70;28.08;;;15.50;99.90;;;;;;5022828;28;20095;-70
2023/06/25 00:30:35;;;;;;;29.30;26.90;;;15.40;99.90;;;;;;5028573;28;20060;-71
2023/06/25 00:33:02;;;;;;;28.13;25.83;;;15.20;99.90;;;;;;5028674;28;20113;-72
2023/06/25 00:35:51;;;;;;;28.83;26.33;;;15.30;99.90;;;;;;4990281;28;20045;-71
2023/06/25 00:38:18;;;;;;;27.85;25.55;;;15.20;99.90;;;;;;5012862;28;20057;-72
2023/06/25 00:40:45;;;;;;;29.83;27.33;;;15.20;99.90;;;;;;5010467;28;20041;-72
2023/06/25 00:43:15;;;;;;;30.20;27.27;;;15.30;99.90;;;;;;5014131;28;20058;-72
2023/06/25 00:45:43;;;;;;;31.65;28.65;;;15.30;99.90;;;;;;5003221;28;20075;-71
2023/06/25 00:48:10;;;;;;;29.65;27.30;;;15.20;99.90;;;;;;5012557;28;20041;-71
2023/06/25 00:50:37;;;;;;;30.42;27.83;;;15.20;99.90;;;;;;5013075;28;20099;-72
2023/06/25 00:53:08;;;;;;;27.70;25.40;;;15.30;99.90;;;;;;5013103;28;20056;-71
2023/06/25 00:55:35;;;;;;;30.77;27.00;;;15.20;99.90;;;;;;5011546;28;20398;-71
2023/06/25 00:58:03;;;;;;;27.90;25.67;;;15.10;99.90;;;;;;5013102;28;20077;-72
2023/06/25 01:00:33;;;;;;;30.48;28.00;;;15.10;99.90;;;;;;5010379;28;20046;-71
2023/06/25 01:03:12;;;;;;;32.63;29.50;;;15.10;99.90;;;;;;5008242;28;20056;-72
2023/06/25 01:05:49;;;;;;;30.05;27.33;;;15.20;99.90;;;;;;5009027;28;20046;-71
2023/06/25 01:08:35;;;;;;;29.25;26.98;;;15.20;99.90;;;;;;5007480;28;20526;-71
2023/06/25 01:11:04;;;;;;;29.20;26.65;;;15.10;99.90;;;;;;5010683;28;20709;-71
2023/06/25 01:13:31;;;;;;;27.98;25.67;;;15.00;99.90;;;;;;5011347;28;20057;-72
2023/06/25 01:15:58;;;;;;;28.20;25.95;;;15.10;99.90;;;;;;5007475;28;20046;-71
2023/06/25 01:18:25;;;;;;;28.13;25.85;;;15.00;99.90;;;;;;5003515;28;20060;-70
2023/06/25 01:20:56;;;;;;;29.25;26.58;;;15.00;99.90;;;;;;5009985;28;20037;-72
2023/06/25 01:23:23;;;;;;;28.50;26.05;;;15.10;99.90;;;;;;5007034;28;20049;-70
2023/06/25 01:25:50;;;;;;;29.67;27.05;;;15.20;99.90;;;;;;5007420;28;20129;-74
2023/06/25 01:28:20;;;;;;;29.58;26.83;;;15.20;99.90;;;;;;5004914;28;20064;-71
2023/06/25 01:30:51;;;;;;;29.52;26.83;;;15.10;99.90;;;;;;5011979;28;20505;-71
2023/06/25 01:33:21;;;;;;;30.90;27.67;;;15.10;99.90;;;;;;5008389;28;20053;-73
2023/06/25 01:35:48;;;;;;;29.90;27.20;;;15.10;99.90;;;;;;4995662;28;20068;-71
2023/06/25 01:38:15;;;;;;;29.33;26.63;;;15.20;99.90;;;;;;4998091;28;20045;-72
2023/06/25 01:40:42;;;;;;;28.27;25.67;;;15.00;99.90;;;;;;5010537;28;20092;-72
2023/06/25 01:43:09;;;;;;;28.33;25.63;;;14.90;99.90;;;;;;5014604;28;20045;-73
2023/06/25 01:45:35;;;;;;;27.85;25.48;;;14.80;99.90;;;;;;5011489;28;21800;-72
2023/06/25 01:48:03;;;;;;;30.30;27.35;;;14.70;99.90;;;;;;5009139;28;20053;-71
2023/06/25 01:50:29;;;;;;;28.08;25.85;;;14.80;99.90;;;;;;5007244;28;20052;-72
2023/06/25 01:52:56;;;;;;;28.63;26.17;;;14.90;99.90;;;;;;5004041;28;20072;-72
2023/06/25 01:55:23;;;;;;;29.15;26.42;;;14.80;99.90;;;;;;5006630;28;20142;-71
2023/06/25 01:57:49;;;;;;;29.10;26.38;;;14.70;99.90;;;;;;5013714;28;20106;-71
2023/06/25 02:00:16;;;;;;;30.15;27.52;;;14.80;99.90;;;;;;5007932;28;20050;-71
2023/06/25 02:02:43;;;;;;;30.15;27.52;;;14.80;99.90;;;;;;5002755;28;21653;-70
2023/06/25 02:05:11;;;;;;;30.42;27.63;;;14.80;99.90;;;;;;5011666;28;20072;-73
2023/06/25 02:07:38;;;;;;;29.42;26.83;;;14.70;99.90;;;;;;5004797;28;20056;-73
2023/06/25 02:10:06;;;;;;;28.45;25.95;;;14.70;99.90;;;;;;5013896;28;20116;-74
2023/06/25 02:12:33;;;;;;;29.05;26.65;;;14.60;99.90;;;;;;5009115;28;20061;-70
2023/06/25 02:14:59;;;;;;;29.50;26.92;;;14.60;99.90;;;;;;5009267;28;20033;-71
2023/06/25 02:17:28;;;;;;;29.40;26.95;;;14.50;99.90;;;;;;4999911;28;20049;-71
2023/06/25 02:19:54;;;;;;;29.13;26.65;;;14.40;99.90;;;;;;4989779;28;20055;-71
2023/06/25 02:22:21;;;;;;;30.20;27.33;;;14.50;99.90;;;;;;5009780;28;20045;-72
2023/06/25 02:24:48;;;;;;;30.67;27.67;;;14.70;99.90;;;;;;5014383;28;20049;-71
2023/06/25 02:27:15;;;;;;;30.10;27.27;;;14.70;99.90;;;;;;5020414;28;20037;-70
2023/06/25 02:29:41;;;;;;;29.98;27.20;;;14.50;99.90;;;;;;5036685;28;20071;-70
2023/06/25 02:32:09;;;;;;;31.58;28.45;;;14.60;99.90;;;;;;5032159;28;20049;-71
2023/06/25 02:34:35;;;;;;;30.48;27.67;;;14.50;99.90;;;;;;5007240;28;20503;-71
2023/06/25 02:37:13;;;;;;;32.17;28.85;;;14.70;99.90;;;;;;5013198;28;20045;-71
2023/06/25 02:39:40;;;;;;;33.03;29.70;;;14.60;99.90;;;;;;4990281;28;20649;-72
2023/06/25 02:42:07;;;;;;;32.40;29.25;;;14.60;99.90;;;;;;5011844;28;20132;-71
2023/06/25 02:44:34;;;;;;;31.48;28.52;;;14.50;99.90;;;;;;5001644;28;20111;-71
2023/06/25 02:47:01;;;;;;;31.50;28.33;;;14.60;99.90;;;;;;5010189;28;20103;-72
2023/06/25 02:49:28;;;;;;;31.35;28.20;;;14.50;99.90;;;;;;4994823;28;20068;-71
2023/06/25 02:51:55;;;;;;;30.75;27.92;;;14.50;99.90;;;;;;5011032;28;20050;-73
2023/06/25 02:54:22;;;;;;;30.25;27.52;;;14.40;99.90;;;;;;5007856;28;20045;-71
2023/06/25 02:56:50;;;;;;;29.25;26.55;;;14.40;99.90;;;;;;5012992;28;20041;-71
2023/06/25 02:59:17;;;;;;;29.17;26.65;;;14.30;99.90;;;;;;5012229;28;20133;-71
2023/06/25 03:01:45;;;;;;;28.13;25.63;;;14.20;99.90;;;;;;5004843;28;20072;-71
2023/06/25 03:04:12;;;;;;;28.77;26.20;;;14.10;99.90;;;;;;5013220;28;20516;-70
2023/06/25 03:06:39;;;;;;;27.20;24.90;;;14.10;99.90;;;;;;5002301;28;20756;-72
2023/06/25 03:09:07;;;;;;;28.70;26.00;;;14.10;99.90;;;;;;5009570;28;20049;-71
2023/06/25 03:11:34;;;;;;;28.63;26.13;;;14.10;99.90;;;;;;5009191;28;20053;-71
2023/06/25 03:14:01;;;;;;;27.80;25.33;;;14.10;99.90;;;;;;5011802;28;20107;-72
2023/06/25 03:16:28;;;;;;;28.85;26.17;;;14.00;99.90;;;;;;4994281;28;20503;-71
2023/06/25 03:18:55;;;;;;;29.10;26.48;;;14.00;99.90;;;;;;5006075;28;20033;-71
2023/06/25 03:21:23;;;;;;;27.00;24.77;;;13.90;99.90;;;;;;5009227;28;20503;-71
2023/06/25 03:23:49;;;;;;;28.63;25.98;;;13.90;99.90;;;;;;4997812;28;20913;-72
2023/06/25 03:26:16;;;;;;;29.73;27.13;;;13.90;99.90;;;;;;5013521;28;20038;-71
2023/06/25 03:28:43;;;;;;;28.80;26.38;;;14.00;99.90;;;;;;5014116;28;20037;-72
2023/06/25 03:31:10;;;;;;;30.48;27.50;;;14.00;99.90;;;;;;5013101;28;20145;-71
2023/06/25 03:33:45;;;;;;;29.33;26.73;;;13.90;99.90;;;;;;5008185;28;20041;-71
2023/06/25 03:36:11;;;;;;;29.45;27.15;;;14.00;99.90;;;;;;5011258;28;20127;-72
2023/06/25 03:38:38;;;;;;;30.73;27.77;;;14.10;99.90;;;;;;5009995;28;20128;-71
2023/06/25 03:41:06;;;;;;;29.40;26.70;;;14.20;99.90;;;;;;5010182;28;20040;-72
2023/06/25 03:43:33;;;;;;;30.25;27.58;;;14.10;99.90;;;;;;5004068;28;21338;-70
2023/06/25 03:46:00;;;;;;;30.40;27.60;;;14.10;99.90;;;;;;4997403;28;20674;-71
2023/06/25 03:48:26;;;;;;;31.80;28.85;;;14.10;99.90;;;;;;5016782;28;20053;-71
2023/06/25 03:50:53;;;;;;;28.10;25.80;;;14.10;99.90;;;;;;5006111;28;20224;-71
2023/06/25 03:53:21;;;;;;;29.38;26.75;;;14.00;99.90;;;;;;5010946;28;20053;-71
2023/06/25 03:55:47;;;;;;;27.42;24.80;;;14.00;99.90;;;;;;5012147;28;20700;-71
2023/06/25 03:58:14;;;;;;;27.67;25.38;;;14.00;99.90;;;;;;5013299;28;20112;-72
2023/06/25 04:00:41;;;;;;;29.10;26.27;;;14.10;99.90;;;;;;5009906;28;20046;-71
2023/06/25 04:03:08;;;;;;;29.20;26.58;;;14.10;99.90;;;;;;5012920;28;20046;-71
2023/06/25 04:05:34;;;;;;;27.88;25.40;;;14.10;99.90;;;;;;5011040;28;20065;-70
2023/06/25 04:08:02;;;;;;;28.50;26.15;;;14.10;99.90;;;;;;5018126;28;20037;-72
2023/06/25 04:10:29;;;;;;;28.63;26.23;;;14.30;99.90;;;;;;5007239;28;20053;-71
2023/06/25 04:12:56;;;;;;;30.75;27.92;;;14.50;99.90;;;;;;4995838;28;20046;-70
2023/06/25 04:15:23;;;;;;;30.45;27.60;;;14.60;99.90;;;;;;4996807;28;20041;-70
2023/06/25 04:17:50;;;;;;;30.05;27.25;;;14.50;99.90;;;;;;5013320;28;20391;-72
2023/06/25 04:20:17;;;;;;;29.83;26.95;;;14.60;99.90;;;;;;5010823;28;20297;-72
2023/06/25 04:22:44;;;;;;;30.67;27.88;;;14.60;99.90;;;;;;5013125;28;20045;-73
2023/06/25 04:25:11;;;;;;;31.40;28.50;;;14.60;99.90;;;;;;5013886;28;20045;-73
2023/06/25 04:27:38;;;;;;;30.80;27.88;;;14.80;99.90;;;;;;4992534;28;20041;-72
2023/06/25 04:30:05;;;;;;;28.85;26.45;;;15.00;99.90;;;;;;5014023;28;20060;-73
2023/06/25 04:32:32;;;;;;;30.42;27.83;;;15.20;99.90;;;;;;4999848;28;20535;-72
2023/06/25 04:35:00;;;;;;;30.10;27.20;;;15.50;99.90;;;;;;5013392;28;20491;-73
2023/06/25 04:37:28;;;;;;;28.23;25.65;;;15.80;99.90;;;;;;5011301;28;20504;-73
2023/06/25 04:39:55;;;;;;;29.10;26.60;;;16.20;99.90;;;;;;5011977;28;20091;-73
2023/06/25 04:42:21;;;;;;;27.35;25.10;;;16.50;99.90;;;;;;5008659;28;20053;-72
2023/06/25 04:44:51;;;;;;;28.38;25.65;;;16.90;99.90;;;;;;4999149;28;20038;-73
2023/06/25 04:47:19;;;;;;;27.90;25.60;;;17.30;99.90;;;;;;5012461;28;20049;-72
2023/06/25 04:49:46;;;;;;;30.17;27.67;;;17.70;99.90;;;;;;5009511;28;20111;-72
2023/06/25 04:52:18;;;;;;;29.38;27.08;;;18.10;99.90;;;;;;5012111;28;20048;-72
2023/06/25 04:54:45;;;;;;;31.55;28.90;;;18.40;99.90;;;;;;5011110;28;20050;-73
2023/06/25 04:57:12;;;;;;;30.75;28.45;;;18.70;99.90;;;;;;5013140;28;20068;-72
2023/06/25 04:59:40;;;;;;;30.15;27.95;;;19.00;99.90;;;;;;5009080;28;20046;-73
2023/06/25 05:02:06;;;;;;;30.33;28.23;;;19.20;99.90;;;;;;5009716;28;20123;-73
2023/06/25 05:04:33;;;;;;;29.55;27.48;;;19.40;99.90;;;;;;5010048;28;20110;-72
2023/06/25 05:07:00;;;;;;;30.95;28.65;;;19.60;99.90;;;;;;5012925;28;20044;-72
2023/06/25 05:09:27;;;;;;;32.15;29.48;;;19.90;99.90;;;;;;5011346;28;20136;-72
2023/06/25 05:11:54;;;;;;;30.27;28.08;;;20.00;99.90;;;;;;5012627;28;20053;-72
2023/06/25 05:14:20;;;;;;;30.95;28.52;;;20.10;99.90;;;;;;5009553;28;20547;-73
2023/06/25 05:16:47;;;;;;;30.60;28.40;;;20.20;99.90;;;;;;5009884;28;20053;-71
2023/06/25 05:19:14;;;;;;;31.52;28.90;;;20.50;99.90;;;;;;5009315;28;20095;-73
2023/06/25 05:21:41;;;;;;;30.67;28.38;;;20.70;99.90;;;;;;5006716;28;20073;-73
2023/06/25 05:24:07;;;;;;;31.05;28.77;;;20.90;99.90;;;;;;5011697;28;20046;-73
2023/06/25 05:26:34;;;;;;;30.17;28.05;;;21.00;99.90;;;;;;5009512;28;21555;-73
2023/06/25 05:29:02;;;;;;;31.20;28.90;;;21.10;99.90;;;;;;5012004;28;20042;-72
2023/06/25 05:31:29;;;;;;;31.52;29.00;;;21.40;99.90;;;;;;5007118;28;20046;-71
2023/06/25 05:33:56;;;;;;;30.65;28.38;;;21.40;99.90;;;;;;5005266;28;20049;-74
2023/06/25 05:36:23;;;;;;;30.85;28.35;;;21.70;99.90;;;;;;5006913;28;20600;-71
2023/06/25 05:38:50;;;;;;;31.27;29.05;;;22.00;99.90;;;;;;5008105;28;20064;-75
2023/06/25 05:41:17;;;;;;;30.23;27.92;;;22.10;99.90;;;;;;5010858;28;20053;-73
2023/06/25 05:43:44;;;;;;;32.20;29.80;;;22.40;99.90;;;;;;5012002;28;20056;-72
2023/06/25 05:46:13;;;;;;;30.67;28.58;;;22.30;99.90;;;;;;5003025;28;20630;-72
2023/06/25 05:48:40;;;;;;;31.42;29.20;;;22.20;99.90;;;;;;5008146;28;20037;-72
2023/06/25 05:51:07;;;;;;;31.02;28.73;;;22.40;99.90;;;;;;5005308;28;20044;-72
2023/06/25 05:53:39;;;;;;;33.55;30.85;;;22.50;99.90;;;;;;5008151;28;20569;-72
2023/06/25 05:56:06;;;;;;;32.70;30.45;;;22.20;99.90;;;;;;5015200;28;20090;-72
2023/06/25 05:58:34;;;;;;;33.83;31.10;;;22.30;99.90;;;;;;5005598;28;20627;-72
2023/06/25 06:01:05;;;;;;;32.72;30.23;;;22.60;99.90;;;;;;5009007;28;20051;-72
2023/06/25 06:03:32;;;;;;;33.08;30.88;;;22.90;99.90;;;;;;5014006;28;20103;-71
2023/06/25 06:06:00;;;;;;;32.67;30.55;;;23.00;99.90;;;;;;5005381;28;20554;-72
2023/06/25 06:08:27;;;;;;;31.92;29.80;;;23.00;99.90;;;;;;4990319;28;20139;-72
2023/06/25 06:10:54;;;;;;;33.00;30.80;;;23.30;99.90;;;;;;5001684;28;20052;-72
2023/06/25 06:13:21;;;;;;;32.47;30.27;;;23.50;99.90;;;;;;4999186;28;20165;-72
2023/06/25 06:15:47;;;;;;;33.15;30.98;;;23.50;99.90;;;;;;5007189;28;20076;-72
2023/06/25 06:18:14;;;;;;;32.38;30.23;;;24.10;99.90;;;;;;5012918;28;20128;-72
2023/06/25 06:20:41;;;;;;;32.88;30.52;;;24.10;99.90;;;;;;5001813;28;20072;-72
2023/06/25 06:23:08;;;;;;;31.90;29.42;;;24.00;99.90;;;;;;5010300;28;20041;-72
2023/06/25 06:25:34;;;;;;;32.30;30.00;;;24.00;99.90;;;;;;5007312;28;20036;-72
2023/06/25 06:28:02;;;;;;;32.90;30.80;;;24.10;99.90;;;;;;5007404;28;20049;-72
2023/06/25 06:30:29;;;;;;;32.22;30.13;;;23.90;99.90;;;;;;5013599;28;20053;-71
2023/06/25 06:32:56;;;;;;;33.15;31.15;;;23.90;99.90;;;;;;4999070;28;20037;-71
2023/06/25 06:35:23;;;;;;;33.78;31.35;;;23.80;99.90;;;;;;5007987;28;20111;-73
2023/06/25 06:37:50;;;;;;;33.15;31.02;;;23.80;99.90;;;;;;5006899;28;20052;-72
2023/06/25 06:40:16;;;;;;;33.20;31.15;;;24.20;99.90;;;;;;5009991;28;20065;-73
2023/06/25 06:42:43;;;;;;;33.53;31.42;;;24.40;99.90;;;;;;5007987;28;20037;-73
2023/06/25 06:45:13;;;;;;;33.25;31.23;;;24.90;99.90;;;;;;5031855;28;20048;-73
2023/06/25 06:47:40;;;;;;;33.10;31.05;;;24.70;99.90;;;;;;5032274;28;20052;-72
2023/06/25 06:50:07;;;;;;;34.63;32.38;;;24.60;99.90;;;;;;5027389;28;20053;-74
2023/06/25 06:52:33;;;;;;;34.88;32.67;;;24.70;99.90;;;;;;5012437;28;20049;-74
2023/06/25 06:55:00;;;;;;;35.95;33.65;;;25.20;99.90;;;;;;5009581;28;20081;-74
2023/06/25 06:57:27;;;;;;;36.22;34.13;;;25.30;99.90;;;;;;5017091;28;20046;-73
2023/06/25 06:59:54;;;;;;;36.47;34.22;;;25.30;99.90;;;;;;5016181;28;20049;-74
2023/06/25 07:02:21;;;;;;;35.35;33.00;;;25.10;99.90;;;;;;5011713;28;20069;-74
2023/06/25 07:04:47;;;;;;;35.92;33.72;;;25.10;99.90;;;;;;5009187;28;20069;-71
2023/06/25 07:07:14;;;;;;;35.53;33.22;;;25.00;99.90;;;;;;5014590;28;20499;-71
2023/06/25 07:09:50;;;;;;;34.88;32.88;;;24.90;99.90;;;;;;5014165;28;20086;-72
2023/06/25 07:12:17;;;;;;;35.33;32.92;;;25.00;99.90;;;;;;5007903;28;20100;-71
2023/06/25 07:14:44;;;;;;;35.35;33.25;;;25.10;99.90;;;;;;5011605;28;20128;-72
2023/06/25 07:17:11;;;;;;;34.65;32.53;;;25.30;99.90;;;;;;5009483;28;20034;-71
2023/06/25 07:19:37;;;;;;;35.92;33.72;;;25.40;99.90;;;;;;5012031;28;20076;-71
2023/06/25 07:22:05;;;;;;;35.38;33.17;;;25.60;99.90;;;;;;5012655;28;20061;-72
2023/06/25 07:24:32;;;;;;;34.88;32.75;;;25.70;99.90;;;;;;5015587;28;20064;-73
2023/06/25 07:26:59;;;;;;;34.95;32.85;;;25.30;99.90;;;;;;5010428;28;20134;-71
2023/06/25 07:29:28;;;;;;;37.05;34.75;;;25.10;99.90;;;;;;5017145;28;20045;-71
2023/06/25 07:31:55;;;;;;;37.65;35.25;;;25.10;99.90;;;;;;5011763;28;20045;-72
2023/06/25 07:34:22;;;;;;;35.92;33.63;;;25.50;99.90;;;;;;5012729;28;20053;-72
2023/06/25 07:36:49;;;;;;;35.08;32.95;;;26.00;99.90;;;;;;5016276;28;20102;-72
2023/06/25 07:39:29;;;;;;;37.22;34.95;;;25.90;99.90;;;;;;5013143;28;20512;-72
2023/06/25 07:41:57;;;;;;;35.40;33.35;;;26.10;99.90;;;;;;5006956;28;20660;-71
2023/06/25 07:44:23;;;;;;;36.08;33.85;;;25.80;99.90;;;;;;5015288;28;20077;-71
2023/06/25 07:47:11;;;;;;;36.78;34.58;;;25.90;99.90;;;;;;5013967;28;20049;-72
2023/06/25 07:49:37;;;;;;;36.90;34.80;;;26.20;99.90;;;;;;5007913;28;20531;-72
2023/06/25 07:52:04;;;;;;;36.50;34.40;;;26.30;99.90;;;;;;5022703;28;20793;-72
2023/06/25 07:54:31;;;;;;;36.92;34.83;;;26.00;99.90;;;;;;5011436;28;20049;-72
2023/06/25 07:56:58;;;;;;;38.90;36.40;;;26.10;99.90;;;;;;5002323;28;20049;-72
2023/06/25 07:59:24;;;;;;;40.38;37.97;;;26.30;99.90;;;;;;5016998;28;20168;-72
2023/06/25 08:02:08;;;;;;;37.78;35.47;;;26.10;99.90;;;;;;5005406;28;20521;-72
2023/06/25 08:04:35;;;;;;;38.17;36.00;;;26.20;99.90;;;;;;4983669;28;20649;-73
2023/06/25 08:07:03;;;;;;;37.85;35.55;;;26.30;99.90;;;;;;5022961;28;20033;-73
2023/06/25 08:09:31;;;;;;;37.38;35.28;;;26.80;99.90;;;;;;5014299;28;20127;-72
2023/06/25 08:11:58;;;;;;;38.55;36.33;;;27.10;99.90;;;;;;5005745;28;20849;-72
2023/06/25 08:14:24;;;;;;;39.10;36.65;;;27.40;99.90;;;;;;4977257;28;20049;-73
2023/06/25 08:16:51;;;;;;;39.53;37.25;;;27.10;99.90;;;;;;5008782;28;20041;-72
2023/06/25 08:19:18;;;;;;;37.83;35.53;;;26.90;99.90;;;;;;5016002;28;20076;-72
2023/06/25 08:21:45;;;;;;;38.17;35.67;;;27.00;99.90;;;;;;5012447;28;20041;-73
2023/06/25 08:24:11;;;;;;;39.25;36.58;;;27.00;99.90;;;;;;5024394;28;20049;-73
2023/06/25 08:26:38;;;;;;;37.47;35.30;;;27.10;99.90;;;;;;5008658;28;20041;-73
2023/06/25 08:29:05;;;;;;;38.03;35.92;;;27.20;99.90;;;;;;5007531;28;20505;-73
2023/06/25 08:31:32;;;;;;;39.92;37.22;;;27.50;99.90;;;;;;5010324;28;20053;-73
2023/06/25 08:33:59;;;;;;;40.20;37.80;;;27.70;99.90;;;;;;5009763;28;20046;-73
2023/06/25 08:36:26;;;;;;;41.05;38.53;;;27.70;99.90;;;;;;5005233;28;20129;-72
2023/06/25 08:38:54;;;;;;;42.58;39.95;;;27.70;99.90;;;;;;4984315;22;20122;-75
2023/06/25 08:41:44;;;;;;;40.85;38.42;;;27.60;99.90;;;;;;4964943;28;20053;-77
2023/06/25 08:47:39;;;;;;;41.63;39.10;;;26.30;99.90;;;;;;4498282;23;20046;-77
2023/06/25 08:50:07;;;;;;;43.60;40.85;;;26.60;99.90;;;;;;4990449;28;20121;-77
2023/06/25 08:52:35;;;;;;;42.20;39.67;;;26.60;99.90;;;;;;4994177;28;20054;-77
2023/06/25 08:55:02;;;;;;;42.72;40.33;;;26.80;99.90;;;;;;4992745;28;20048;-77
2023/06/25 08:57:31;;;;;;;43.78;41.38;;;27.40;99.90;;;;;;4991444;28;20054;-77
2023/06/25 08:59:58;;;;;;;44.22;41.83;;;27.50;99.90;;;;;;4989361;28;20084;-77
2023/06/25 09:02:27;;;;;;;45.35;42.85;;;27.90;99.90;;;;;;4989456;28;20042;-77
2023/06/25 09:05:22;;;;;;;45.38;42.78;;;28.10;99.90;;;;;;4993794;28;20808;-77
2023/06/25 09:07:49;;;;;;;46.92;44.40;;;28.10;99.90;;;;;;4988286;28;20056;-77
2023/06/25 09:10:16;;;;;;;44.20;41.47;;;28.00;99.90;;;;;;4986245;28;20149;-76
2023/06/25 09:12:51;;;;;;;44.03;41.72;;;28.00;99.90;;;;;;4990155;28;20561;-77
2023/06/25 09:15:22;;;;;;;36.38;34.28;;;28.20;99.90;;;;;;4972715;28;20097;-77
2023/06/25 09:17:53;;;;;;;47.47;44.50;;;28.30;99.90;;;;;;4991592;28;20042;-77
2023/06/25 09:20:20;;;;;;;46.28;43.78;;;28.70;99.90;;;;;;4989057;28;20783;-77
2023/06/25 09:22:56;;;;;;;46.33;43.55;;;29.10;99.90;;;;;;4992668;28;20068;-77
2023/06/25 09:25:30;;;;;;;50.78;47.83;;;29.60;99.90;;;;;;4993859;28;20050;-77
2023/06/25 09:28:00;;;;;;;50.53;47.53;;;29.90;99.90;;;;;;4992849;28;20101;-77
2023/06/25 09:30:27;;;;;;;49.95;47.15;;;29.90;99.90;;;;;;5001277;28;20061;-78
2023/06/25 09:32:55;;;;;;;49.67;47.08;;;29.70;99.90;;;;;;4978864;28;20129;-77
2023/06/25 09:35:25;;;;;;;52.05;49.05;;;29.70;99.90;;;;;;4992676;28;20056;-77
2023/06/25 09:37:52;;;;;;;47.38;44.78;;;29.40;99.90;;;;;;4992333;28;20528;-78
2023/06/25 09:40:19;;;;;;;43.00;40.60;;;29.30;99.90;;;;;;4972548;28;20054;-77
2023/06/25 09:42:53;;;;;;;53.35;50.25;;;29.20;99.90;;;;;;4979780;28;20100;-77
2023/06/25 09:45:21;;;;;;;52.33;49.38;;;28.60;99.90;;;;;;4977987;28;20107;-76
2023/06/25 09:47:49;;;;;;;50.72;47.92;;;28.90;99.90;;;;;;4995368;28;20058;-77
2023/06/25 09:50:18;;;;;;;47.10;44.50;;;29.40;99.90;;;;;;4991395;28;20084;-77
2023/06/25 09:52:57;;;;;;;43.67;41.15;;;29.60;99.90;;;;;;4995666;28;20580;-77
2023/06/25 09:55:26;;;;;;;52.78;49.72;;;29.20;99.90;;;;;;4995970;28;20103;-77
2023/06/25 09:57:54;;;;;;;52.08;49.28;;;28.70;99.90;;;;;;4995025;28;20041;-77
2023/06/25 10:00:22;;;;;;;51.15;48.35;;;29.00;99.90;;;;;;4999782;28;20070;-77
2023/06/25 10:02:50;;;;;;;52.33;49.15;;;28.90;99.90;;;;;;4997626;28;20038;-77
2023/06/25 10:05:17;;;;;;;51.92;48.92;;;29.20;99.90;;;;;;4996962;28;20420;-76
2023/06/25 10:07:45;;;;;;;53.30;50.10;;;29.50;99.90;;;;;;4997508;28;20056;-77
2023/06/25 10:10:22;;;;;;;54.40;51.10;;;29.80;99.90;;;;;;4996429;28;20049;-77
2023/06/25 10:12:50;;;;;;;52.60;49.60;;;29.70;99.90;;;;;;4998950;28;20096;-77
2023/06/25 10:15:36;;;;;;;55.00;51.67;;;29.90;99.90;;;;;;4989590;28;20040;-76
2023/06/25 10:18:09;;;;;;;54.85;51.65;;;29.40;99.90;;;;;;4989648;28;20040;-77
2023/06/25 10:20:37;;;;;;;55.03;51.75;;;29.70;99.90;;;;;;5012724;28;20100;-77
2023/06/25 10:23:08;;;;;;;55.13;51.90;;;30.00;99.90;;;;;;4996689;28;20115;-77
2023/06/25 10:25:38;;;;;;;55.60;52.70;;;29.90;99.90;;;;;;5003373;28;20579;-77
2023/06/25 10:28:13;;;;;;;47.15;44.53;;;29.60;99.90;;;;;;4997424;28;20049;-77
2023/06/25 10:30:47;;;;;;;53.28;50.20;;;29.40;99.90;;;;;;5000909;28;20136;-78
2023/06/25 10:33:15;;;;;;;52.42;49.47;;;29.40;99.90;;;;;;4998739;28;20054;-77
2023/06/25 10:35:46;;;;;;;54.33;51.38;;;29.80;99.90;;;;;;4999079;28;20042;-77
2023/06/25 10:38:13;;;;;;;52.28;49.50;;;30.20;99.90;;;;;;4999068;28;20065;-77
2023/06/25 10:40:43;;;;;;;53.92;50.95;;;30.30;99.90;;;;;;4997889;28;20049;-77
2023/06/25 10:43:17;;;;;;;56.63;53.42;;;30.40;99.90;;;;;;4996559;28;20053;-77
2023/06/25 10:45:51;;;;;;;55.57;52.47;;;30.10;99.90;;;;;;4998192;28;20072;-77
2023/06/25 10:48:19;;;;;;;57.83;54.50;;;30.20;99.90;;;;;;4997386;28;20305;-77
2023/06/25 10:50:47;;;;;;;56.00;52.80;;;29.40;99.90;;;;;;4999992;28;20057;-77
2023/06/25 10:53:18;;;;;;;47.13;44.60;;;29.80;99.90;;;;;;5005781;28;20550;-77
2023/06/25 10:55:50;;;;;;;58.08;54.65;;;29.50;99.90;;;;;;4995514;28;20056;-77
2023/06/25 10:58:19;;;;;;;56.60;53.15;;;29.90;99.90;;;;;;4985175;28;20053;-78
2023/06/25 11:00:53;;;;;;;56.45;53.15;;;30.40;99.90;;;;;;5011873;28;20033;-77
2023/06/25 11:03:21;;;;;;;56.78;53.67;;;30.60;99.90;;;;;;4978510;28;20576;-77
2023/06/25 11:05:49;;;;;;;46.25;43.70;;;30.50;99.90;;;;;;5001297;28;20046;-77
2023/06/25 11:08:16;;;;;;;46.17;43.65;;;30.50;99.90;;;;;;4998671;28;20049;-78
2023/06/25 11:10:43;;;;;;;54.67;51.58;;;30.00;99.90;;;;;;4997932;28;20726;-77
2023/06/25 11:13:14;;;;;;;46.05;43.53;;;29.50;99.90;;;;;;5003608;28;20045;-77
2023/06/25 11:15:41;;;;;;;57.47;53.92;;;29.60;99.90;;;;;;5002705;28;20050;-77
2023/06/25 11:18:08;;;;;;;49.90;47.00;;;29.90;99.90;;;;;;4998660;28;20046;-77
2023/06/25 11:20:38;;;;;;;55.55;52.35;;;30.00;99.90;;;;;;4994623;28;20050;-77
2023/06/25 11:23:05;;;;;;;56.53;53.40;;;30.30;99.90;;;;;;4990660;28;20123;-77
2023/06/25 11:25:32;;;;;;;47.20;44.60;;;30.30;99.90;;;;;;4991178;28;20053;-77
2023/06/25 11:28:01;;;;;;;56.05;52.75;;;30.40;99.90;;;;;;5000209;28;20080;-77
2023/06/25 11:30:29;;;;;;;54.65;51.55;;;30.20;99.90;;;;;;5000688;28;20035;-77
2023/06/25 11:33:27;;;;;;;53.97;50.92;;;30.00;99.90;;;;;;5000886;28;20046;-77
2023/06/25 11:36:05;;;;;;;54.08;51.08;;;29.60;99.90;;;;;;5003147;28;20041;-77
2023/06/25 11:38:32;;;;;;;48.38;45.78;;;30.00;99.90;;;;;;5002439;28;20104;-77
2023/06/25 11:40:58;;;;;;;46.22;43.53;;;30.40;99.90;;;;;;5002871;28;20042;-77
2023/06/25 11:43:26;;;;;;;50.10;47.20;;;30.50;99.90;;;;;;5002931;28;20053;-77
2023/06/25 11:46:01;;;;;;;49.78;46.88;;;30.30;99.90;;;;;;5001852;28;20737;-77
2023/06/25 11:48:29;;;;;;;54.85;51.78;;;30.10;99.90;;;;;;4999175;28;20761;-77
2023/06/25 11:51:06;;;;;;;54.33;51.20;;;30.10;99.90;;;;;;5001644;28;20049;-77
2023/06/25 11:53:33;;;;;;;54.08;51.17;;;30.10;99.90;;;;;;4991980;28;20060;-77
2023/06/25 11:56:00;;;;;;;59.17;56.08;;;30.40;99.90;;;;;;4996440;28;20053;-77
2023/06/25 11:58:31;;;;;;;54.72;51.78;;;30.40;99.90;;;;;;4982976;28;20038;-77
2023/06/25 12:00:58;;;;;;;56.28;52.88;;;30.30;99.90;;;;;;4976615;28;20071;-77
2023/06/25 12:03:25;;;;;;;53.38;50.38;;;29.90;99.90;;;;;;4989224;28;20137;-77
2023/06/25 12:05:52;;;;;;;58.30;55.10;;;30.20;99.90;;;;;;4990548;28;20116;-77
2023/06/25 12:08:19;;;;;;;55.08;52.08;;;30.30;99.90;;;;;;4976418;28;21208;-77
2023/06/25 12:10:46;;;;;;;56.30;53.25;;;30.70;99.90;;;;;;4994726;28;20125;-77
2023/06/25 12:13:12;;;;;;;57.45;54.35;;;30.40;99.90;;;;;;4971847;28;20057;-77
2023/06/25 12:15:39;;;;;;;58.30;55.13;;;30.50;99.90;;;;;;4991009;28;20523;-77
2023/06/25 12:18:06;;;;;;;56.90;53.88;;;30.60;99.90;;;;;;4992312;28;20421;-77
2023/06/25 12:20:33;;;;;;;56.35;53.35;;;31.00;99.90;;;;;;4996744;28;20057;-77
2023/06/25 12:23:00;;;;;;;54.58;51.58;;;31.20;99.90;;;;;;4992457;28;20038;-77
2023/06/25 12:25:26;;;;;;;54.53;51.60;;;31.40;99.90;;;;;;4996692;28;20042;-77
2023/06/25 12:27:54;;;;;;;54.25;51.45;;;31.40;99.90;;;;;;4994786;28;20044;-77
2023/06/25 12:30:22;;;;;;;53.63;50.75;;;31.00;99.90;;;;;;4998921;28;20136;-77
2023/06/25 12:32:49;;;;;;;53.70;50.70;;;30.80;99.90;;;;;;4999972;28;20049;-77
2023/06/25 12:35:18;;;;;;;54.42;51.33;;;30.90;99.90;;;;;;4996512;28;20124;-77
2023/06/25 12:37:44;;;;;;;56.45;53.28;;;31.00;99.90;;;;;;5001862;28;20038;-77